sensor_id;sensor_type;location;lat;lon;timestamp;temperature;humidity
20744;DHT22;56303;52.160;-0.428;2024-03-29T00:00:56;8.60;99.90
20744;DHT22;56303;52.160;-0.428;2024-03-29T00:03:22;8.70;99.90
20744;DHT22;56303;52.160;-0.428;2024-03-29T00:05:48;8.60;99.90
20744;DHT22;56303;52.160;-0.428;2024-03-29T00:08:14;8.70;99.90
20744;DHT22;56303;52.160;-0.428;2024-03-29T00:10:40;8.70;99.90
20744;DHT22;56303;52.160;-0.428;2024-03-29T00:13:05;8.70;99.90
20744;DHT22;56303;52.160;-0.428;2024-03-29T00:15:32;8.80;99.90
20744;DHT22;56303;52.160;-0.428;2024-03-29T00:17:58;8.90;99.90
20744;DHT22;56303;52.160;-0.428;2024-03-29T00:20:24;8.90;99.90
20744;DHT22;56303;52.160;-0.428;2024-03-29T00:22:50;8.70;99.90
20744;DHT22;56303;52.160;-0.428;2024-03-29T00:25:16;8.70;99.90
20744;DHT22;56303;52.160;-0.428;2024-03-29T00:27:42;8.60;99.90
20744;DHT22;56303;52.160;-0.428;2024-03-29T00:30:10;8.90;99.90
20744;DHT22;56303;52.160;-0.428;2024-03-29T00:32:36;8.50;99.90
20744;DHT22;56303;52.160;-0.428;2024-03-29T00:35:02;8.40;99.90
20744;DHT22;56303;52.160;-0.428;2024-03-29T00:37:28;8.40;99.90
20744;DHT22;56303;52.160;-0.428;2024-03-29T00:39:54;8.50;99.90
20744;DHT22;56303;52.160;-0.428;2024-03-29T00:42:20;8.60;99.90
20744;DHT22;56303;52.160;-0.428;2024-03-29T00:44:46;8.50;99.90
20744;DHT22;56303;52.160;-0.428;2024-03-29T00:47:13;8.30;99.90
20744;DHT22;56303;52.160;-0.428;2024-03-29T00:49:39;8.40;99.90
20744;DHT22;56303;52.160;-0.428;2024-03-29T00:52:05;8.30;99.90
20744;DHT22;56303;52.160;-0.428;2024-03-29T00:54:31;8.40;99.90
20744;DHT22;56303;52.160;-0.428;2024-03-29T00:56:57;8.50;99.90
20744;DHT22;56303;52.160;-0.428;2024-03-29T00:59:24;8.40;99.90
20744;DHT22;56303;52.160;-0.428;2024-03-29T01:01:50;8.40;99.90
20744;DHT22;56303;52.160;-0.428;2024-03-29T01:04:17;8.50;99.90
20744;DHT22;56303;52.160;-0.428;2024-03-29T01:06:43;8.20;99.90
20744;DHT22;56303;52.160;-0.428;2024-03-29T01:09:09;8.20;99.90
20744;DHT22;56303;52.160;-0.428;2024-03-29T01:11:38;8.40;99.90
20744;DHT22;56303;52.160;-0.428;2024-03-29T01:14:05;8.40;99.90
20744;DHT22;56303;52.160;-0.428;2024-03-29T01:16:31;8.30;99.90
20744;DHT22;56303;52.160;-0.428;2024-03-29T01:18:58;8.40;99.90
20744;DHT22;56303;52.160;-0.428;2024-03-29T01:21:27;8.30;99.90
20744;DHT22;56303;52.160;-0.428;2024-03-29T01:23:53;8.40;99.90
20744;DHT22;56303;52.160;-0.428;2024-03-29T01:26:19;8.60;99.90
20744;DHT22;56303;52.160;-0.428;2024-03-29T01:28:45;8.40;99.90
20744;DHT22;56303;52.160;-0.428;2024-03-29T01:31:11;8.10;99.90
20744;DHT22;56303;52.160;-0.428;2024-03-29T01:33:41;8.30;99.90
20744;DHT22;56303;52.160;-0.428;2024-03-29T01:36:07;8.40;99.90
20744;DHT22;56303;52.160;-0.428;2024-03-29T01:38:34;8.40;99.90
20744;DHT22;56303;52.160;-0.428;2024-03-29T01:41:00;8.50;99.90
20744;DHT22;56303;52.160;-0.428;2024-03-29T01:43:26;8.50;99.90
20744;DHT22;56303;52.160;-0.428;2024-03-29T01:45:55;8.60;99.90
20744;DHT22;56303;52.160;-0.428;2024-03-29T01:48:23;8.80;99.90
20744;DHT22;56303;52.160;-0.428;2024-03-29T01:50:51;8.60;99.90
20744;DHT22;56303;52.160;-0.428;2024-03-29T01:53:19;8.60;99.90
20744;DHT22;56303;52.160;-0.428;2024-03-29T01:55:45;8.40;99.90
20744;DHT22;56303;52.160;-0.428;2024-03-29T01:58:12;8.50;99.90
20744;DHT22;56303;52.160;-0.428;2024-03-29T02:00:42;8.60;99.90
20744;DHT22;56303;52.160;-0.428;2024-03-29T02:03:09;8.70;99.90
20744;DHT22;56303;52.160;-0.428;2024-03-29T02:05:42;8.50;99.90
20744;DHT22;56303;52.160;-0.428;2024-03-29T02:08:10;8.70;99.90
20744;DHT22;56303;52.160;-0.428;2024-03-29T02:10:37;8.80;99.90
20744;DHT22;56303;52.160;-0.428;2024-03-29T02:13:03;8.70;99.90
20744;DHT22;56303;52.160;-0.428;2024-03-29T02:15:32;8.70;99.90
20744;DHT22;56303;52.160;-0.428;2024-03-29T02:17:58;8.90;99.90
20744;DHT22;56303;52.160;-0.428;2024-03-29T02:20:25;8.80;99.90
20744;DHT22;56303;52.160;-0.428;2024-03-29T02:22:57;9.00;99.90
20744;DHT22;56303;52.160;-0.428;2024-03-29T02:25:24;9.00;99.90
20744;DHT22;56303;52.160;-0.428;2024-03-29T02:27:51;9.10;99.90
20744;DHT22;56303;52.160;-0.428;2024-03-29T02:30:17;9.00;99.90
20744;DHT22;56303;52.160;-0.428;2024-03-29T02:32:44;9.00;99.90
20744;DHT22;56303;52.160;-0.428;2024-03-29T02:35:09;8.90;99.90
20744;DHT22;56303;52.160;-0.428;2024-03-29T02:37:36;9.00;99.90
20744;DHT22;56303;52.160;-0.428;2024-03-29T02:40:03;9.00;99.90
20744;DHT22;56303;52.160;-0.428;2024-03-29T02:42:29;9.10;99.90
20744;DHT22;56303;52.160;-0.428;2024-03-29T02:44:55;8.90;99.90
20744;DHT22;56303;52.160;-0.428;2024-03-29T02:47:22;8.90;99.90
20744;DHT22;56303;52.160;-0.428;2024-03-29T02:49:48;8.90;99.90
20744;DHT22;56303;52.160;-0.428;2024-03-29T02:52:14;9.00;99.90
20744;DHT22;56303;52.160;-0.428;2024-03-29T02:54:43;9.10;99.90
20744;DHT22;56303;52.160;-0.428;2024-03-29T02:57:09;8.80;99.90
20744;DHT22;56303;52.160;-0.428;2024-03-29T02:59:35;8.70;99.90
20744;DHT22;56303;52.160;-0.428;2024-03-29T03:02:01;8.90;99.90
20744;DHT22;56303;52.160;-0.428;2024-03-29T03:04:26;8.90;99.90
20744;DHT22;56303;52.160;-0.428;2024-03-29T03:06:52;8.90;99.90
20744;DHT22;56303;52.160;-0.428;2024-03-29T03:09:18;8.80;99.90
20744;DHT22;56303;52.160;-0.428;2024-03-29T03:12:02;8.80;99.90
20744;DHT22;56303;52.160;-0.428;2024-03-29T03:14:28;8.60;99.90
20744;DHT22;56303;52.160;-0.428;2024-03-29T03:16:54;8.70;99.90
20744;DHT22;56303;52.160;-0.428;2024-03-29T03:19:20;8.70;99.90
20744;DHT22;56303;52.160;-0.428;2024-03-29T03:21:46;8.80;99.90
20744;DHT22;56303;52.160;-0.428;2024-03-29T03:24:13;8.70;99.90
20744;DHT22;56303;52.160;-0.428;2024-03-29T03:26:39;8.90;99.90
20744;DHT22;56303;52.160;-0.428;2024-03-29T03:29:05;8.70;99.90
20744;DHT22;56303;52.160;-0.428;2024-03-29T03:31:30;8.40;99.90
20744;DHT22;56303;52.160;-0.428;2024-03-29T03:33:56;8.60;99.90
20744;DHT22;56303;52.160;-0.428;2024-03-29T03:36:22;8.90;99.90
20744;DHT22;56303;52.160;-0.428;2024-03-29T03:38:48;8.70;99.90
20744;DHT22;56303;52.160;-0.428;2024-03-29T03:41:14;8.90;99.90
20744;DHT22;56303;52.160;-0.428;2024-03-29T03:43:40;9.10;99.90
20744;DHT22;56303;52.160;-0.428;2024-03-29T03:46:06;9.30;99.90
20744;DHT22;56303;52.160;-0.428;2024-03-29T03:48:32;9.50;99.90
20744;DHT22;56303;52.160;-0.428;2024-03-29T03:50:58;9.70;99.90
20744;DHT22;56303;52.160;-0.428;2024-03-29T03:53:24;9.60;99.90
20744;DHT22;56303;52.160;-0.428;2024-03-29T03:55:50;9.70;99.90
20744;DHT22;56303;52.160;-0.428;2024-03-29T03:58:15;9.60;99.90
20744;DHT22;56303;52.160;-0.428;2024-03-29T04:00:41;9.60;99.90
20744;DHT22;56303;52.160;-0.428;2024-03-29T04:03:07;9.70;99.90
20744;DHT22;56303;52.160;-0.428;2024-03-29T04:05:37;9.90;99.90
20744;DHT22;56303;52.160;-0.428;2024-03-29T04:08:03;10.10;99.90
20744;DHT22;56303;52.160;-0.428;2024-03-29T04:10:29;10.20;99.90
20744;DHT22;56303;52.160;-0.428;2024-03-29T04:12:55;10.20;99.90
20744;DHT22;56303;52.160;-0.428;2024-03-29T04:15:21;10.20;99.90
20744;DHT22;56303;52.160;-0.428;2024-03-29T04:17:47;10.40;99.90
20744;DHT22;56303;52.160;-0.428;2024-03-29T04:20:13;10.20;99.90
20744;DHT22;56303;52.160;-0.428;2024-03-29T04:22:38;10.10;99.90
20744;DHT22;56303;52.160;-0.428;2024-03-29T04:25:04;10.10;99.90
20744;DHT22;56303;52.160;-0.428;2024-03-29T04:27:30;10.10;99.90
20744;DHT22;56303;52.160;-0.428;2024-03-29T04:29:56;9.90;99.90
20744;DHT22;56303;52.160;-0.428;2024-03-29T04:32:22;10.10;99.90
20744;DHT22;56303;52.160;-0.428;2024-03-29T04:34:50;10.00;99.90
20744;DHT22;56303;52.160;-0.428;2024-03-29T04:37:17;9.80;99.90
20744;DHT22;56303;52.160;-0.428;2024-03-29T04:39:44;11.00;99.90
20744;DHT22;56303;52.160;-0.428;2024-03-29T04:42:10;9.90;99.90
20744;DHT22;56303;52.160;-0.428;2024-03-29T04:44:37;9.80;99.90
20744;DHT22;56303;52.160;-0.428;2024-03-29T04:47:03;9.80;99.90
20744;DHT22;56303;52.160;-0.428;2024-03-29T04:49:29;10.00;99.90
20744;DHT22;56303;52.160;-0.428;2024-03-29T04:52:06;9.90;99.90
20744;DHT22;56303;52.160;-0.428;2024-03-29T04:54:33;9.90;99.90
20744;DHT22;56303;52.160;-0.428;2024-03-29T04:57:02;10.10;99.90
20744;DHT22;56303;52.160;-0.428;2024-03-29T04:59:29;10.10;99.90
20744;DHT22;56303;52.160;-0.428;2024-03-29T05:01:55;10.10;99.90
20744;DHT22;56303;52.160;-0.428;2024-03-29T05:04:23;10.20;99.90
20744;DHT22;56303;52.160;-0.428;2024-03-29T05:06:55;10.30;99.90
20744;DHT22;56303;52.160;-0.428;2024-03-29T05:09:22;10.30;99.90
20744;DHT22;56303;52.160;-0.428;2024-03-29T05:11:48;10.60;99.90
20744;DHT22;56303;52.160;-0.428;2024-03-29T05:14:15;10.70;99.90
20744;DHT22;56303;52.160;-0.428;2024-03-29T05:16:47;10.60;99.90
20744;DHT22;56303;52.160;-0.428;2024-03-29T05:19:14;10.20;99.90
20744;DHT22;56303;52.160;-0.428;2024-03-29T05:21:40;10.20;99.90
20744;DHT22;56303;52.160;-0.428;2024-03-29T05:24:06;10.20;99.90
20744;DHT22;56303;52.160;-0.428;2024-03-29T05:26:33;10.30;99.90
20744;DHT22;56303;52.160;-0.428;2024-03-29T05:28:59;10.20;99.90
20744;DHT22;56303;52.160;-0.428;2024-03-29T05:31:25;10.00;99.90
20744;DHT22;56303;52.160;-0.428;2024-03-29T05:33:52;9.80;99.90
20744;DHT22;56303;52.160;-0.428;2024-03-29T05:36:18;9.80;99.90
20744;DHT22;56303;52.160;-0.428;2024-03-29T05:38:45;10.00;99.90
20744;DHT22;56303;52.160;-0.428;2024-03-29T05:41:11;10.00;99.90
20744;DHT22;56303;52.160;-0.428;2024-03-29T05:43:39;9.90;99.90
20744;DHT22;56303;52.160;-0.428;2024-03-29T05:46:06;9.90;99.90
20744;DHT22;56303;52.160;-0.428;2024-03-29T05:48:32;9.70;99.90
20744;DHT22;56303;52.160;-0.428;2024-03-29T05:50:57;9.70;99.90
20744;DHT22;56303;52.160;-0.428;2024-03-29T05:53:23;9.70;99.90
20744;DHT22;56303;52.160;-0.428;2024-03-29T05:55:50;9.80;99.90
20744;DHT22;56303;52.160;-0.428;2024-03-29T05:58:16;9.60;99.90
20744;DHT22;56303;52.160;-0.428;2024-03-29T06:00:46;9.30;99.90
20744;DHT22;56303;52.160;-0.428;2024-03-29T06:03:12;9.30;99.90
20744;DHT22;56303;52.160;-0.428;2024-03-29T06:05:40;9.40;99.90
20744;DHT22;56303;52.160;-0.428;2024-03-29T06:08:07;9.60;99.90
20744;DHT22;56303;52.160;-0.428;2024-03-29T06:10:33;9.50;99.90
20744;DHT22;56303;52.160;-0.428;2024-03-29T06:12:59;9.50;99.90
20744;DHT22;56303;52.160;-0.428;2024-03-29T06:15:33;9.50;99.90
20744;DHT22;56303;52.160;-0.428;2024-03-29T06:18:17;9.50;99.90
20744;DHT22;56303;52.160;-0.428;2024-03-29T06:20:47;9.60;99.90
20744;DHT22;56303;52.160;-0.428;2024-03-29T06:23:13;9.40;99.90
20744;DHT22;56303;52.160;-0.428;2024-03-29T06:25:40;9.50;99.90
20744;DHT22;56303;52.160;-0.428;2024-03-29T06:28:06;9.70;99.90
20744;DHT22;56303;52.160;-0.428;2024-03-29T06:30:31;9.50;99.90
20744;DHT22;56303;52.160;-0.428;2024-03-29T06:32:57;9.40;99.90
20744;DHT22;56303;52.160;-0.428;2024-03-29T06:35:26;9.60;99.90
20744;DHT22;56303;52.160;-0.428;2024-03-29T06:37:52;9.40;99.90
20744;DHT22;56303;52.160;-0.428;2024-03-29T06:40:18;9.20;99.90
20744;DHT22;56303;52.160;-0.428;2024-03-29T06:42:44;9.30;99.90
20744;DHT22;56303;52.160;-0.428;2024-03-29T06:45:09;9.60;99.90
20744;DHT22;56303;52.160;-0.428;2024-03-29T06:47:36;9.50;99.90
20744;DHT22;56303;52.160;-0.428;2024-03-29T06:50:01;9.70;99.90
20744;DHT22;56303;52.160;-0.428;2024-03-29T06:52:27;9.70;99.90
20744;DHT22;56303;52.160;-0.428;2024-03-29T06:54:53;9.60;99.90
20744;DHT22;56303;52.160;-0.428;2024-03-29T06:57:19;9.70;99.90
20744;DHT22;56303;52.160;-0.428;2024-03-29T06:59:48;9.90;99.90
20744;DHT22;56303;52.160;-0.428;2024-03-29T07:02:14;9.70;99.90
20744;DHT22;56303;52.160;-0.428;2024-03-29T07:04:40;9.80;99.90
20744;DHT22;56303;52.160;-0.428;2024-03-29T07:07:06;9.70;99.90
20744;DHT22;56303;52.160;-0.428;2024-03-29T07:09:32;9.90;99.90
20744;DHT22;56303;52.160;-0.428;2024-03-29T07:11:58;9.90;99.90
20744;DHT22;56303;52.160;-0.428;2024-03-29T07:14:24;9.70;99.90
20744;DHT22;56303;52.160;-0.428;2024-03-29T07:16:52;9.70;99.90
20744;DHT22;56303;52.160;-0.428;2024-03-29T07:19:18;9.90;99.90
20744;DHT22;56303;52.160;-0.428;2024-03-29T07:21:45;10.00;99.90
20744;DHT22;56303;52.160;-0.428;2024-03-29T07:24:12;10.00;99.90
20744;DHT22;56303;52.160;-0.428;2024-03-29T07:26:38;10.10;99.90
20744;DHT22;56303;52.160;-0.428;2024-03-29T07:29:05;10.00;99.90
20744;DHT22;56303;52.160;-0.428;2024-03-29T07:31:33;9.90;99.90
20744;DHT22;56303;52.160;-0.428;2024-03-29T07:33:59;10.20;99.90
20744;DHT22;56303;52.160;-0.428;2024-03-29T07:36:26;10.30;99.90
20744;DHT22;56303;52.160;-0.428;2024-03-29T07:38:57;10.10;99.90
20744;DHT22;56303;52.160;-0.428;2024-03-29T07:41:24;10.10;99.90
20744;DHT22;56303;52.160;-0.428;2024-03-29T07:43:57;10.20;99.90
20744;DHT22;56303;52.160;-0.428;2024-03-29T07:46:28;10.10;99.90
20744;DHT22;56303;52.160;-0.428;2024-03-29T07:48:56;10.30;99.90
20744;DHT22;56303;52.160;-0.428;2024-03-29T07:51:22;10.30;99.90
20744;DHT22;56303;52.160;-0.428;2024-03-29T07:53:48;10.40;99.90
20744;DHT22;56303;52.160;-0.428;2024-03-29T07:56:14;11.50;99.90
20744;DHT22;56303;52.160;-0.428;2024-03-29T07:58:41;10.10;99.90
20744;DHT22;56303;52.160;-0.428;2024-03-29T08:01:07;10.10;99.90
20744;DHT22;56303;52.160;-0.428;2024-03-29T08:03:32;10.20;99.90
20744;DHT22;56303;52.160;-0.428;2024-03-29T08:06:01;10.30;99.90
20744;DHT22;56303;52.160;-0.428;2024-03-29T08:08:31;10.50;99.90
20744;DHT22;56303;52.160;-0.428;2024-03-29T08:10:57;10.50;99.90
20744;DHT22;56303;52.160;-0.428;2024-03-29T08:13:24;10.50;99.90
20744;DHT22;56303;52.160;-0.428;2024-03-29T08:16:00;10.60;99.90
20744;DHT22;56303;52.160;-0.428;2024-03-29T08:18:27;10.70;99.90
20744;DHT22;56303;52.160;-0.428;2024-03-29T08:20:53;10.50;99.90
20744;DHT22;56303;52.160;-0.428;2024-03-29T08:23:23;10.70;99.90
20744;DHT22;56303;52.160;-0.428;2024-03-29T08:25:49;10.90;99.90
20744;DHT22;56303;52.160;-0.428;2024-03-29T08:28:20;10.80;99.90
20744;DHT22;56303;52.160;-0.428;2024-03-29T08:30:56;10.80;99.90
20744;DHT22;56303;52.160;-0.428;2024-03-29T08:33:22;10.40;99.90
20744;DHT22;56303;52.160;-0.428;2024-03-29T08:35:48;10.60;99.90
20744;DHT22;56303;52.160;-0.428;2024-03-29T08:38:14;10.60;99.90
20744;DHT22;56303;52.160;-0.428;2024-03-29T08:40:41;10.70;99.90
20744;DHT22;56303;52.160;-0.428;2024-03-29T08:43:09;10.70;99.90
20744;DHT22;56303;52.160;-0.428;2024-03-29T08:45:35;10.90;99.90
20744;DHT22;56303;52.160;-0.428;2024-03-29T08:48:09;10.70;99.90
20744;DHT22;56303;52.160;-0.428;2024-03-29T08:50:35;11.20;99.90
20744;DHT22;56303;52.160;-0.428;2024-03-29T08:53:02;11.20;99.90
20744;DHT22;56303;52.160;-0.428;2024-03-29T08:55:30;11.30;99.90
20744;DHT22;56303;52.160;-0.428;2024-03-29T08:58:00;11.60;99.90
20744;DHT22;56303;52.160;-0.428;2024-03-29T09:00:27;11.20;99.90
20744;DHT22;56303;52.160;-0.428;2024-03-29T09:02:53;11.30;99.90
20744;DHT22;56303;52.160;-0.428;2024-03-29T09:05:19;11.10;99.90
20744;DHT22;56303;52.160;-0.428;2024-03-29T09:07:45;11.30;99.90
20744;DHT22;56303;52.160;-0.428;2024-03-29T09:10:13;11.40;99.90
20744;DHT22;56303;52.160;-0.428;2024-03-29T09:12:39;11.60;99.90
20744;DHT22;56303;52.160;-0.428;2024-03-29T09:15:05;11.30;99.90
20744;DHT22;56303;52.160;-0.428;2024-03-29T09:17:35;11.10;99.90
20744;DHT22;56303;52.160;-0.428;2024-03-29T09:20:01;11.30;99.90
20744;DHT22;56303;52.160;-0.428;2024-03-29T09:22:27;11.60;99.90
20744;DHT22;56303;52.160;-0.428;2024-03-29T09:24:53;11.70;99.90
20744;DHT22;56303;52.160;-0.428;2024-03-29T09:27:19;11.60;99.90
20744;DHT22;56303;52.160;-0.428;2024-03-29T09:29:48;11.30;99.90
20744;DHT22;56303;52.160;-0.428;2024-03-29T09:32:17;11.30;99.90
20744;DHT22;56303;52.160;-0.428;2024-03-29T09:34:44;11.50;99.90
20744;DHT22;56303;52.160;-0.428;2024-03-29T09:37:10;11.50;99.90
20744;DHT22;56303;52.160;-0.428;2024-03-29T09:39:36;11.20;99.90
20744;DHT22;56303;52.160;-0.428;2024-03-29T09:42:03;11.10;99.90
20744;DHT22;56303;52.160;-0.428;2024-03-29T09:44:33;11.20;99.90
20744;DHT22;56303;52.160;-0.428;2024-03-29T09:47:03;11.50;99.90
20744;DHT22;56303;52.160;-0.428;2024-03-29T09:49:31;11.70;99.90
20744;DHT22;56303;52.160;-0.428;2024-03-29T09:52:01;11.90;99.90
20744;DHT22;56303;52.160;-0.428;2024-03-29T09:54:30;11.80;99.90
20744;DHT22;56303;52.160;-0.428;2024-03-29T09:57:00;12.00;99.90
20744;DHT22;56303;52.160;-0.428;2024-03-29T09:59:26;12.10;99.90
20744;DHT22;56303;52.160;-0.428;2024-03-29T10:01:57;12.10;99.90
20744;DHT22;56303;52.160;-0.428;2024-03-29T10:04:24;12.00;99.90
20744;DHT22;56303;52.160;-0.428;2024-03-29T10:06:51;11.80;99.90
20744;DHT22;56303;52.160;-0.428;2024-03-29T10:09:21;12.00;99.90
20744;DHT22;56303;52.160;-0.428;2024-03-29T10:11:48;12.10;99.90
20744;DHT22;56303;52.160;-0.428;2024-03-29T10:14:14;12.50;99.90
20744;DHT22;56303;52.160;-0.428;2024-03-29T10:16:40;12.40;99.90
20744;DHT22;56303;52.160;-0.428;2024-03-29T10:19:07;12.30;99.90
20744;DHT22;56303;52.160;-0.428;2024-03-29T10:21:33;12.10;99.90
20744;DHT22;56303;52.160;-0.428;2024-03-29T10:24:15;12.10;99.90
20744;DHT22;56303;52.160;-0.428;2024-03-29T10:26:46;12.10;99.90
20744;DHT22;56303;52.160;-0.428;2024-03-29T10:29:13;12.30;99.90
20744;DHT22;56303;52.160;-0.428;2024-03-29T10:31:39;12.60;99.90
20744;DHT22;56303;52.160;-0.428;2024-03-29T10:34:06;12.80;99.90
20744;DHT22;56303;52.160;-0.428;2024-03-29T10:36:32;13.30;99.90
20744;DHT22;56303;52.160;-0.428;2024-03-29T10:39:10;12.80;99.90
20744;DHT22;56303;52.160;-0.428;2024-03-29T10:41:43;12.60;99.90
20744;DHT22;56303;52.160;-0.428;2024-03-29T10:44:10;12.60;99.90
20744;DHT22;56303;52.160;-0.428;2024-03-29T10:46:38;12.90;99.90
20744;DHT22;56303;52.160;-0.428;2024-03-29T10:49:09;13.10;99.90
20744;DHT22;56303;52.160;-0.428;2024-03-29T10:51:39;13.40;99.90
20744;DHT22;56303;52.160;-0.428;2024-03-29T10:54:09;13.70;99.90
20744;DHT22;56303;52.160;-0.428;2024-03-29T10:56:36;13.50;99.90
20744;DHT22;56303;52.160;-0.428;2024-03-29T10:59:17;13.40;99.90
20744;DHT22;56303;52.160;-0.428;2024-03-29T11:01:45;13.70;99.90
20744;DHT22;56303;52.160;-0.428;2024-03-29T11:04:22;13.30;99.90
20744;DHT22;56303;52.160;-0.428;2024-03-29T11:06:53;13.50;99.90
20744;DHT22;56303;52.160;-0.428;2024-03-29T11:09:20;13.30;99.90
20744;DHT22;56303;52.160;-0.428;2024-03-29T11:11:50;13.40;99.90
20744;DHT22;56303;52.160;-0.428;2024-03-29T11:14:22;13.50;99.90
20744;DHT22;56303;52.160;-0.428;2024-03-29T11:16:50;13.90;99.90
20744;DHT22;56303;52.160;-0.428;2024-03-29T11:19:20;14.30;99.90
20744;DHT22;56303;52.160;-0.428;2024-03-29T11:21:46;14.00;99.90
20744;DHT22;56303;52.160;-0.428;2024-03-29T11:24:17;14.20;99.90
20744;DHT22;56303;52.160;-0.428;2024-03-29T11:26:45;14.40;99.90
20744;DHT22;56303;52.160;-0.428;2024-03-29T11:29:22;15.30;99.90
20744;DHT22;56303;52.160;-0.428;2024-03-29T11:31:56;15.80;99.90
20744;DHT22;56303;52.160;-0.428;2024-03-29T11:34:22;15.40;99.90
20744;DHT22;56303;52.160;-0.428;2024-03-29T11:36:48;15.70;99.90
20744;DHT22;56303;52.160;-0.428;2024-03-29T11:39:21;15.60;99.90
20744;DHT22;56303;52.160;-0.428;2024-03-29T11:41:48;15.80;99.90
20744;DHT22;56303;52.160;-0.428;2024-03-29T11:44:14;15.70;99.90
20744;DHT22;56303;52.160;-0.428;2024-03-29T11:46:40;15.70;99.90
20744;DHT22;56303;52.160;-0.428;2024-03-29T11:49:07;15.40;99.90
20744;DHT22;56303;52.160;-0.428;2024-03-29T11:51:33;15.10;99.90
20744;DHT22;56303;52.160;-0.428;2024-03-29T11:54:00;14.70;99.90
20744;DHT22;56303;52.160;-0.428;2024-03-29T11:56:26;14.80;99.90
20744;DHT22;56303;52.160;-0.428;2024-03-29T11:58:52;15.00;99.90
20744;DHT22;56303;52.160;-0.428;2024-03-29T12:01:19;15.40;99.90
20744;DHT22;56303;52.160;-0.428;2024-03-29T12:03:46;15.70;99.90
20744;DHT22;56303;52.160;-0.428;2024-03-29T12:06:14;15.10;99.90
20744;DHT22;56303;52.160;-0.428;2024-03-29T12:08:41;14.60;99.90
20744;DHT22;56303;52.160;-0.428;2024-03-29T12:11:08;14.10;99.90
20744;DHT22;56303;52.160;-0.428;2024-03-29T12:13:34;13.80;99.90
20744;DHT22;56303;52.160;-0.428;2024-03-29T12:16:01;13.70;99.90
20744;DHT22;56303;52.160;-0.428;2024-03-29T12:18:27;13.70;99.90
20744;DHT22;56303;52.160;-0.428;2024-03-29T12:20:59;13.80;99.90
20744;DHT22;56303;52.160;-0.428;2024-03-29T12:23:25;14.40;99.90
20744;DHT22;56303;52.160;-0.428;2024-03-29T12:25:54;14.80;99.90
20744;DHT22;56303;52.160;-0.428;2024-03-29T12:28:25;15.20;99.90
20744;DHT22;56303;52.160;-0.428;2024-03-29T12:30:51;15.40;99.90
20744;DHT22;56303;52.160;-0.428;2024-03-29T12:33:20;15.60;99.90
20744;DHT22;56303;52.160;-0.428;2024-03-29T12:35:47;15.60;99.90
20744;DHT22;56303;52.160;-0.428;2024-03-29T12:38:19;15.80;99.90
20744;DHT22;56303;52.160;-0.428;2024-03-29T12:40:46;16.10;99.90
20744;DHT22;56303;52.160;-0.428;2024-03-29T12:43:15;15.90;99.90
20744;DHT22;56303;52.160;-0.428;2024-03-29T12:45:43;15.70;99.90
20744;DHT22;56303;52.160;-0.428;2024-03-29T12:48:14;15.60;99.90
20744;DHT22;56303;52.160;-0.428;2024-03-29T12:50:42;16.00;99.90
20744;DHT22;56303;52.160;-0.428;2024-03-29T12:53:10;16.50;99.90
20744;DHT22;56303;52.160;-0.428;2024-03-29T12:55:39;16.20;99.90
20744;DHT22;56303;52.160;-0.428;2024-03-29T12:58:07;15.60;99.90
20744;DHT22;56303;52.160;-0.428;2024-03-29T13:00:35;15.30;99.90
20744;DHT22;56303;52.160;-0.428;2024-03-29T13:03:02;15.50;99.90
20744;DHT22;56303;52.160;-0.428;2024-03-29T13:05:28;16.30;99.90
20744;DHT22;56303;52.160;-0.428;2024-03-29T13:08:18;17.10;99.90
20744;DHT22;56303;52.160;-0.428;2024-03-29T13:10:44;17.30;99.90
20744;DHT22;56303;52.160;-0.428;2024-03-29T13:13:11;17.20;99.90
20744;DHT22;56303;52.160;-0.428;2024-03-29T13:15:38;16.50;99.90
20744;DHT22;56303;52.160;-0.428;2024-03-29T13:18:05;17.10;99.90
20744;DHT22;56303;52.160;-0.428;2024-03-29T13:20:32;17.20;99.90
20744;DHT22;56303;52.160;-0.428;2024-03-29T13:23:01;17.40;99.90
20744;DHT22;56303;52.160;-0.428;2024-03-29T13:25:27;16.90;99.90
20744;DHT22;56303;52.160;-0.428;2024-03-29T13:27:54;16.90;99.90
20744;DHT22;56303;52.160;-0.428;2024-03-29T13:30:25;16.30;99.90
20744;DHT22;56303;52.160;-0.428;2024-03-29T13:32:51;16.30;99.90
20744;DHT22;56303;52.160;-0.428;2024-03-29T13:35:17;16.70;99.90
20744;DHT22;56303;52.160;-0.428;2024-03-29T13:37:49;17.10;99.90
20744;DHT22;56303;52.160;-0.428;2024-03-29T13:40:16;17.20;99.90
20744;DHT22;56303;52.160;-0.428;2024-03-29T13:42:43;17.50;99.90
20744;DHT22;56303;52.160;-0.428;2024-03-29T13:45:10;16.80;99.90
20744;DHT22;56303;52.160;-0.428;2024-03-29T13:47:40;16.50;99.90
20744;DHT22;56303;52.160;-0.428;2024-03-29T13:50:07;16.40;99.90
20744;DHT22;56303;52.160;-0.428;2024-03-29T13:52:34;15.80;99.90
20744;DHT22;56303;52.160;-0.428;2024-03-29T13:55:01;16.60;99.90
20744;DHT22;56303;52.160;-0.428;2024-03-29T13:57:28;15.80;99.90
20744;DHT22;56303;52.160;-0.428;2024-03-29T13:59:54;15.90;99.90
20744;DHT22;56303;52.160;-0.428;2024-03-29T14:02:20;16.50;99.90
20744;DHT22;56303;52.160;-0.428;2024-03-29T14:04:46;17.10;99.90
20744;DHT22;56303;52.160;-0.428;2024-03-29T14:07:14;17.90;99.90
20744;DHT22;56303;52.160;-0.428;2024-03-29T14:09:41;17.70;99.90
20744;DHT22;56303;52.160;-0.428;2024-03-29T14:12:08;16.60;99.90
20744;DHT22;56303;52.160;-0.428;2024-03-29T14:14:34;16.30;99.90
20744;DHT22;56303;52.160;-0.428;2024-03-29T14:17:01;16.20;99.90
20744;DHT22;56303;52.160;-0.428;2024-03-29T14:19:41;15.90;99.90
20744;DHT22;56303;52.160;-0.428;2024-03-29T14:22:07;15.50;99.90
20744;DHT22;56303;52.160;-0.428;2024-03-29T14:24:34;15.00;99.90
20744;DHT22;56303;52.160;-0.428;2024-03-29T14:27:03;14.80;99.90
20744;DHT22;56303;52.160;-0.428;2024-03-29T14:29:31;14.90;99.90
20744;DHT22;56303;52.160;-0.428;2024-03-29T14:31:57;14.80;99.90
20744;DHT22;56303;52.160;-0.428;2024-03-29T14:34:23;14.70;99.90
20744;DHT22;56303;52.160;-0.428;2024-03-29T14:36:50;14.00;99.90
20744;DHT22;56303;52.160;-0.428;2024-03-29T14:39:17;13.50;99.90
20744;DHT22;56303;52.160;-0.428;2024-03-29T14:41:44;13.40;99.90
20744;DHT22;56303;52.160;-0.428;2024-03-29T14:44:12;13.00;99.90
20744;DHT22;56303;52.160;-0.428;2024-03-29T14:46:38;13.40;99.90
20744;DHT22;56303;52.160;-0.428;2024-03-29T14:49:05;13.40;99.90
20744;DHT22;56303;52.160;-0.428;2024-03-29T14:51:35;14.20;99.90
20744;DHT22;56303;52.160;-0.428;2024-03-29T14:54:02;15.40;99.90
20744;DHT22;56303;52.160;-0.428;2024-03-29T14:56:29;16.60;99.90
20744;DHT22;56303;52.160;-0.428;2024-03-29T14:59:01;16.60;99.90
20744;DHT22;56303;52.160;-0.428;2024-03-29T15:01:27;16.50;99.90
20744;DHT22;56303;52.160;-0.428;2024-03-29T15:03:53;16.10;99.90
20744;DHT22;56303;52.160;-0.428;2024-03-29T15:06:20;15.70;99.90
20744;DHT22;56303;52.160;-0.428;2024-03-29T15:08:48;16.20;99.90
20744;DHT22;56303;52.160;-0.428;2024-03-29T15:11:14;16.20;99.90
20744;DHT22;56303;52.160;-0.428;2024-03-29T15:13:40;15.70;99.90
20744;DHT22;56303;52.160;-0.428;2024-03-29T15:16:06;15.50;99.90
20744;DHT22;56303;52.160;-0.428;2024-03-29T15:18:32;15.00;99.90
20744;DHT22;56303;52.160;-0.428;2024-03-29T15:21:00;15.10;99.90
20744;DHT22;56303;52.160;-0.428;2024-03-29T15:23:28;14.80;99.90